createdAt,value
2019-02-05T00:00:57.182Z,1003.19
2019-02-05T00:01:57.153Z,1003.20
2019-02-05T00:02:57.133Z,1003.23
2019-02-05T00:03:57.112Z,1003.29
2019-02-05T00:04:57.123Z,1003.22
2019-02-05T00:05:57.073Z,1003.22
2019-02-05T00:06:57.127Z,1003.22
2019-02-05T00:07:57.033Z,1003.24
2019-02-05T00:08:57.012Z,1003.23
2019-02-05T00:09:56.992Z,1003.20
2019-02-05T00:10:56.973Z,1003.22
2019-02-05T00:11:56.957Z,1003.23
2019-02-05T00:12:56.932Z,1003.20
2019-02-05T00:13:56.910Z,1003.25
2019-02-05T00:14:56.887Z,1003.21
2019-02-05T00:15:56.870Z,1003.22
2019-02-05T00:16:56.846Z,1003.16
2019-02-05T00:17:56.830Z,1003.17
2019-02-05T00:18:56.810Z,1003.14
2019-02-05T00:19:56.792Z,1003.08
2019-02-05T00:20:56.772Z,1003.10
2019-02-05T00:21:56.750Z,1003.11
2019-02-05T00:22:56.723Z,1003.15
2019-02-05T00:23:56.706Z,1003.12
2019-02-05T00:24:56.689Z,1003.13
2019-02-05T00:26:05.825Z,1003.10
2019-02-05T00:26:56.648Z,1003.06
2019-02-05T00:27:56.625Z,1003.11
2019-02-05T00:28:56.601Z,1003.12
2019-02-05T00:29:56.582Z,1003.12
2019-02-05T00:30:56.563Z,1003.10
2019-02-05T00:31:56.543Z,1003.10
2019-02-05T00:32:56.604Z,1003.10
2019-02-05T00:33:56.503Z,1003.09
2019-02-05T00:34:56.482Z,1003.09
2019-02-05T00:35:56.455Z,1003.12
2019-02-05T00:36:56.448Z,1003.08
2019-02-05T00:37:56.415Z,1003.04
2019-02-05T00:38:56.398Z,1003.01
2019-02-05T00:39:56.377Z,1002.98
2019-02-05T00:40:56.359Z,1002.91
2019-02-05T00:41:56.343Z,1002.91
2019-02-05T00:42:56.313Z,1002.86
2019-02-05T00:43:56.293Z,1002.87
2019-02-05T00:44:56.277Z,1002.87
2019-02-05T00:45:56.250Z,1002.89
2019-02-05T00:46:56.239Z,1002.91
2019-02-05T00:47:56.213Z,1002.94
2019-02-05T00:48:56.191Z,1002.92
2019-02-05T00:49:56.172Z,1002.93
2019-02-05T00:50:56.147Z,1002.93
2019-02-05T00:51:56.131Z,1002.94
2019-02-05T00:52:56.112Z,1002.95
2019-02-05T00:53:56.093Z,1002.88
2019-02-05T00:54:56.068Z,1002.92
2019-02-05T00:55:56.044Z,1002.88
2019-02-05T00:56:56.027Z,1002.86
2019-02-05T00:57:56.005Z,1002.90
2019-02-05T00:58:55.984Z,1002.96
2019-02-05T00:59:55.966Z,1002.99
2019-02-05T01:00:55.962Z,1002.95
2019-02-05T01:01:55.922Z,1002.97
2019-02-05T01:02:55.903Z,1002.93
2019-02-05T01:03:55.879Z,1002.94
2019-02-05T01:04:55.853Z,1002.94
2019-02-05T01:05:55.842Z,1002.90
2019-02-05T01:06:55.820Z,1002.90
2019-02-05T01:07:55.793Z,1002.88
2019-02-05T01:08:55.781Z,1002.94
2019-02-05T01:09:55.754Z,1002.92
2019-02-05T01:10:55.745Z,1002.93
2019-02-05T01:11:55.722Z,1002.98
2019-02-05T01:12:55.696Z,1002.97
2019-02-05T01:13:55.678Z,1002.97
2019-02-05T01:14:55.659Z,1002.93
2019-02-05T01:15:55.630Z,1002.91
2019-02-05T01:16:55.620Z,1002.90
2019-02-05T01:17:55.589Z,1002.91
2019-02-05T01:18:55.571Z,1002.91
2019-02-05T01:19:55.552Z,1002.91
2019-02-05T01:20:55.525Z,1002.90
2019-02-05T01:21:55.507Z,1002.89
2019-02-05T01:22:55.500Z,1002.83
2019-02-05T01:23:55.470Z,1002.88
2019-02-05T01:24:55.443Z,1002.87
2019-02-05T01:25:55.421Z,1002.91
2019-02-05T01:26:55.401Z,1002.89
2019-02-05T01:27:55.379Z,1002.89
2019-02-05T01:28:55.358Z,1002.84
2019-02-05T01:29:55.337Z,1002.80
2019-02-05T01:30:55.322Z,1002.77
2019-02-05T01:31:55.296Z,1002.75
2019-02-05T01:32:55.275Z,1002.75
2019-02-05T01:33:55.249Z,1002.69
2019-02-05T01:34:55.244Z,1002.70
2019-02-05T01:35:55.214Z,1002.65
2019-02-05T01:36:55.192Z,1002.59
2019-02-05T01:37:55.175Z,1002.56
2019-02-05T01:38:55.154Z,1002.56
2019-02-05T01:39:55.126Z,1002.55
2019-02-05T01:40:55.115Z,1002.48
2019-02-05T01:41:55.083Z,1002.52
2019-02-05T01:42:55.065Z,1002.53
2019-02-05T01:43:55.048Z,1002.48
2019-02-05T01:44:55.021Z,1002.48
2019-02-05T01:45:55.004Z,1002.55
2019-02-05T01:46:54.985Z,1002.56
2019-02-05T01:47:54.966Z,1002.54
2019-02-05T01:48:54.939Z,1002.57
2019-02-05T01:49:54.917Z,1002.56
2019-02-05T01:50:54.977Z,1002.49
2019-02-05T01:51:54.872Z,1002.54
2019-02-05T01:52:54.851Z,1002.53
2019-02-05T01:53:54.838Z,1002.52
2019-02-05T01:54:54.819Z,1002.54
2019-02-05T01:55:54.790Z,1002.54
2019-02-05T01:56:54.774Z,1002.55
2019-02-05T01:57:54.744Z,1002.57
2019-02-05T01:58:54.724Z,1002.57
2019-02-05T01:59:54.703Z,1002.60
2019-02-05T02:00:54.685Z,1002.66
2019-02-05T02:01:54.655Z,1002.67
2019-02-05T02:02:54.645Z,1002.62
2019-02-05T02:03:54.617Z,1002.67
2019-02-05T02:04:54.597Z,1002.63
2019-02-05T02:05:54.575Z,1002.60
2019-02-05T02:06:54.556Z,1002.61
2019-02-05T02:07:54.535Z,1002.59
2019-02-05T02:08:54.515Z,1002.60
2019-02-05T02:09:54.492Z,1002.56
2019-02-05T02:10:54.472Z,1002.59
2019-02-05T02:11:54.456Z,1002.57
2019-02-05T02:12:54.429Z,1002.57
2019-02-05T02:13:54.408Z,1002.61
2019-02-05T02:14:54.384Z,1002.66
2019-02-05T02:15:54.357Z,1002.59
2019-02-05T02:16:54.340Z,1002.62
2019-02-05T02:17:54.321Z,1002.61
2019-02-05T02:18:54.308Z,1002.62
2019-02-05T02:19:54.282Z,1002.65
2019-02-05T02:20:54.252Z,1002.58
2019-02-05T02:21:54.238Z,1002.59
2019-02-05T02:22:54.220Z,1002.63
2019-02-05T02:23:54.192Z,1002.59
2019-02-05T02:24:54.170Z,1002.59
2019-02-05T02:25:54.148Z,1002.60
2019-02-05T02:26:54.136Z,1002.58
2019-02-05T02:27:54.112Z,1002.57
2019-02-05T02:28:54.085Z,1002.55
2019-02-05T02:29:54.067Z,1002.59
2019-02-05T02:30:54.055Z,1002.54
2019-02-05T02:31:54.022Z,1002.52
2019-02-05T02:32:54.000Z,1002.53
2019-02-05T02:33:53.983Z,1002.52
2019-02-05T02:34:53.960Z,1002.55
2019-02-05T02:35:53.935Z,1002.51
2019-02-05T02:36:53.918Z,1002.56
2019-02-05T02:37:53.895Z,1002.66
2019-02-05T02:38:53.882Z,1002.63
2019-02-05T02:39:53.852Z,1002.61
2019-02-05T02:40:53.835Z,1002.68
2019-02-05T02:41:53.811Z,1002.62
2019-02-05T02:42:53.788Z,1002.65
2019-02-05T02:43:53.769Z,1002.60
2019-02-05T02:44:53.747Z,1002.53
2019-02-05T02:45:53.733Z,1002.49
2019-02-05T02:46:53.703Z,1002.49
2019-02-05T02:47:53.683Z,1002.45
2019-02-05T02:48:53.661Z,1002.42
2019-02-05T02:49:53.642Z,1002.42
2019-02-05T02:50:53.625Z,1002.36
2019-02-05T02:51:53.603Z,1002.38
2019-02-05T02:52:53.579Z,1002.35
2019-02-05T02:53:53.558Z,1002.30
2019-02-05T02:54:53.534Z,1002.33
2019-02-05T02:55:53.513Z,1002.33
2019-02-05T02:57:04.556Z,1002.32
2019-02-05T02:57:53.473Z,1002.35
2019-02-05T02:58:53.447Z,1002.35
2019-02-05T02:59:53.437Z,1002.32
2019-02-05T03:00:53.406Z,1002.32
2019-02-05T03:01:53.385Z,1002.36
2019-02-05T03:02:53.363Z,1002.38
2019-02-05T03:03:53.346Z,1002.32
2019-02-05T03:04:53.321Z,1002.39
2019-02-05T03:05:53.304Z,1002.38
2019-02-05T03:06:53.281Z,1002.42
2019-02-05T03:07:53.262Z,1002.40
2019-02-05T03:08:53.237Z,1002.36
2019-02-05T03:09:53.210Z,1002.35
2019-02-05T03:10:53.193Z,1002.36
2019-02-05T03:11:53.169Z,1002.37
2019-02-05T03:12:53.146Z,1002.38
2019-02-05T03:13:53.130Z,1002.44
2019-02-05T03:14:53.108Z,1002.46
2019-02-05T03:15:53.081Z,1002.51
2019-02-05T03:16:53.072Z,1002.52
2019-02-05T03:17:53.039Z,1002.51
2019-02-05T03:18:53.042Z,1002.50
2019-02-05T03:19:53.000Z,1002.46
2019-02-05T03:20:52.979Z,1002.48
2019-02-05T03:21:52.958Z,1002.44
2019-02-05T03:22:52.951Z,1002.44
2019-02-05T03:23:52.916Z,1002.41
2019-02-05T03:24:52.894Z,1002.38
2019-02-05T03:25:52.871Z,1002.41
2019-02-05T03:26:52.853Z,1002.43
2019-02-05T03:27:54.186Z,1002.44
2019-02-05T03:28:52.806Z,1002.50
2019-02-05T03:29:52.794Z,1002.55
2019-02-05T03:30:53.060Z,1002.56
2019-02-05T03:31:52.750Z,1002.55
2019-02-05T03:32:52.729Z,1002.55
2019-02-05T03:33:52.701Z,1002.54
2019-02-05T03:34:52.681Z,1002.52
2019-02-05T03:35:52.662Z,1002.51
2019-02-05T03:36:52.640Z,1002.55
2019-02-05T03:37:52.617Z,1002.55
2019-02-05T03:38:52.597Z,1002.56
2019-02-05T03:39:52.581Z,1002.54
2019-02-05T03:40:52.561Z,1002.51
2019-02-05T03:41:52.536Z,1002.53
2019-02-05T03:42:52.515Z,1002.50
2019-02-05T03:43:52.482Z,1002.51
2019-02-05T03:44:52.469Z,1002.53
2019-02-05T03:45:52.441Z,1002.50
2019-02-05T03:46:52.432Z,1002.50
2019-02-05T03:47:52.401Z,1002.50
2019-02-05T03:48:52.381Z,1002.50
2019-02-05T03:49:52.368Z,1002.47
2019-02-05T03:50:52.340Z,1002.48
2019-02-05T03:51:52.316Z,1002.46
2019-02-05T03:52:52.296Z,1002.49
2019-02-05T03:53:52.274Z,1002.50
2019-02-05T03:54:52.255Z,1002.51
2019-02-05T03:55:52.230Z,1002.50
2019-02-05T03:56:52.209Z,1002.58
2019-02-05T03:57:52.188Z,1002.61
2019-02-05T03:58:52.168Z,1002.66
2019-02-05T03:59:52.146Z,1002.67
2019-02-05T04:00:52.133Z,1002.71
2019-02-05T04:01:52.107Z,1002.67
2019-02-05T04:02:52.086Z,1002.65
2019-02-05T04:03:52.053Z,1002.63
2019-02-05T04:04:52.033Z,1002.65
2019-02-05T04:05:52.017Z,1002.65
2019-02-05T04:06:51.995Z,1002.63
2019-02-05T04:07:51.993Z,1002.65
2019-02-05T04:08:51.949Z,1002.67
2019-02-05T04:09:51.931Z,1002.64
2019-02-05T04:10:51.909Z,1002.68
2019-02-05T04:11:51.888Z,1002.61
2019-02-05T04:12:51.865Z,1002.61
2019-02-05T04:13:51.957Z,1002.56
2019-02-05T04:14:51.835Z,1002.59
2019-02-05T04:15:51.805Z,1002.57
2019-02-05T04:16:51.778Z,1002.61
2019-02-05T04:17:51.766Z,1002.56
2019-02-05T04:18:51.744Z,1002.57
2019-02-05T04:19:51.717Z,1002.57
2019-02-05T04:20:51.695Z,1002.58
2019-02-05T04:21:51.674Z,1002.61
2019-02-05T04:22:51.684Z,1002.58
2019-02-05T04:23:51.646Z,1002.61
2019-02-05T04:24:51.630Z,1002.61
2019-02-05T04:25:51.588Z,1002.63
2019-02-05T04:26:51.567Z,1002.65
2019-02-05T04:27:51.544Z,1002.68
2019-02-05T04:28:51.527Z,1002.68
2019-02-05T04:29:51.505Z,1002.68
2019-02-05T04:30:51.480Z,1002.67
2019-02-05T04:31:51.460Z,1002.70
2019-02-05T04:32:51.433Z,1002.66
2019-02-05T04:33:51.431Z,1002.69
2019-02-05T04:34:51.395Z,1002.66
2019-02-05T04:35:51.372Z,1002.69
2019-02-05T04:36:51.351Z,1002.68
2019-02-05T04:37:51.333Z,1002.74
2019-02-05T04:38:51.308Z,1002.69
2019-02-05T04:39:51.289Z,1002.68
2019-02-05T04:40:51.290Z,1002.65
2019-02-05T04:41:51.314Z,1002.63
2019-02-05T04:42:51.225Z,1002.63
2019-02-05T04:43:51.203Z,1002.70
2019-02-05T04:44:51.175Z,1002.69
2019-02-05T04:45:51.166Z,1002.70
2019-02-05T04:46:51.159Z,1002.71
2019-02-05T04:47:51.114Z,1002.65
2019-02-05T04:48:51.097Z,1002.65
2019-02-05T04:49:51.072Z,1002.67
2019-02-05T04:50:51.046Z,1002.66
2019-02-05T04:51:51.032Z,1002.68
2019-02-05T04:52:51.011Z,1002.65
2019-02-05T04:53:50.987Z,1002.64
2019-02-05T04:54:50.969Z,1002.62
2019-02-05T04:55:50.943Z,1002.69
2019-02-05T04:56:50.929Z,1002.69
2019-02-05T04:57:58.035Z,1002.70
2019-02-05T04:58:50.879Z,1002.73
2019-02-05T04:59:50.859Z,1002.65
2019-02-05T05:00:50.850Z,1002.66
2019-02-05T05:01:50.811Z,1002.64
2019-02-05T05:02:50.808Z,1002.70
2019-02-05T05:03:50.771Z,1002.70
2019-02-05T05:04:50.750Z,1002.74
2019-02-05T05:05:50.729Z,1002.75
2019-02-05T05:06:50.703Z,1002.79
2019-02-05T05:07:50.692Z,1002.75
2019-02-05T05:08:50.677Z,1002.74
2019-02-05T05:09:50.649Z,1002.74
2019-02-05T05:10:50.648Z,1002.74
2019-02-05T05:11:50.608Z,1002.75
2019-02-05T05:12:50.576Z,1002.70
2019-02-05T05:13:50.564Z,1002.75
2019-02-05T05:14:50.538Z,1002.76
2019-02-05T05:15:50.521Z,1002.77
2019-02-05T05:16:50.491Z,1002.84
2019-02-05T05:17:50.471Z,1002.83
2019-02-05T05:18:50.445Z,1002.88
2019-02-05T05:19:50.441Z,1002.91
2019-02-05T05:20:50.407Z,1002.88
2019-02-05T05:21:50.381Z,1002.90
2019-02-05T05:22:50.371Z,1002.88
2019-02-05T05:23:50.337Z,1002.90
2019-02-05T05:24:50.326Z,1002.88
2019-02-05T05:25:50.297Z,1002.88
2019-02-05T05:26:50.276Z,1002.88
2019-02-05T05:27:50.261Z,1002.89
2019-02-05T05:28:50.238Z,1002.94
2019-02-05T05:29:50.226Z,1002.91
2019-02-05T05:30:50.187Z,1002.91
2019-02-05T05:31:50.170Z,1002.96
2019-02-05T05:32:50.155Z,1002.97
2019-02-05T05:33:50.129Z,1002.96
2019-02-05T05:34:50.101Z,1003.01
2019-02-05T05:35:50.083Z,1003.00
2019-02-05T05:36:50.063Z,1003.02
2019-02-05T05:37:50.042Z,1003.00
2019-02-05T05:38:50.037Z,1003.02
2019-02-05T05:39:49.990Z,1003.02
2019-02-05T05:40:49.985Z,1003.00
2019-02-05T05:41:49.967Z,1002.97
2019-02-05T05:42:49.932Z,1002.96
2019-02-05T05:43:49.911Z,1002.94
2019-02-05T05:44:49.889Z,1002.95
2019-02-05T05:45:49.865Z,1002.93
2019-02-05T05:46:49.847Z,1002.91
2019-02-05T05:47:49.825Z,1002.95
2019-02-05T05:48:49.806Z,1002.91
2019-02-05T05:49:49.782Z,1002.97
2019-02-05T05:50:49.764Z,1002.96
2019-02-05T05:51:49.731Z,1002.95
2019-02-05T05:52:49.728Z,1002.96
2019-02-05T05:53:49.695Z,1002.98
2019-02-05T05:54:49.670Z,1003.04
2019-02-05T05:55:49.651Z,1003.05
2019-02-05T05:56:49.632Z,1003.10
2019-02-05T05:57:49.610Z,1003.09
2019-02-05T05:58:49.589Z,1003.11
2019-02-05T05:59:49.566Z,1003.06
2019-02-05T06:00:49.549Z,1003.05
2019-02-05T06:01:49.526Z,1003.05
2019-02-05T06:02:49.500Z,1003.07
2019-02-05T06:03:49.480Z,1003.14
2019-02-05T06:04:49.468Z,1003.12
2019-02-05T06:05:49.439Z,1003.09
2019-02-05T06:06:49.416Z,1003.05
2019-02-05T06:07:49.392Z,1003.10
2019-02-05T06:08:49.372Z,1003.07
2019-02-05T06:09:49.361Z,1003.07
2019-02-05T06:10:49.322Z,1003.07
2019-02-05T06:11:49.308Z,1003.06
2019-02-05T06:12:49.287Z,1003.10
2019-02-05T06:13:49.265Z,1003.06
2019-02-05T06:14:49.243Z,1003.07
2019-02-05T06:15:49.224Z,1003.03
2019-02-05T06:16:49.199Z,1003.02
2019-02-05T06:17:49.179Z,1003.01
2019-02-05T06:18:49.158Z,1003.01
2019-02-05T06:19:49.133Z,1003.03
2019-02-05T06:20:49.122Z,1003.03
2019-02-05T06:21:49.093Z,1003.02
2019-02-05T06:22:49.075Z,1003.02
2019-02-05T06:23:49.054Z,1003.07
2019-02-05T06:24:49.027Z,1003.05
2019-02-05T06:25:49.016Z,1003.02
2019-02-05T06:26:48.990Z,1003.05
2019-02-05T06:27:48.973Z,1003.06
2019-02-05T06:28:48.950Z,1003.01
2019-02-05T06:29:48.924Z,1003.01
2019-02-05T06:30:48.921Z,1003.01
2019-02-05T06:31:48.879Z,1002.97
2019-02-05T06:32:48.864Z,1003.01
2019-02-05T06:33:48.838Z,1003.03
2019-02-05T06:34:48.819Z,1003.03
2019-02-05T06:35:48.796Z,1003.05
2019-02-05T06:36:48.775Z,1003.03
2019-02-05T06:37:48.756Z,1003.06
2019-02-05T06:38:48.748Z,1003.07
2019-02-05T06:39:48.722Z,1003.04
2019-02-05T06:40:48.691Z,1003.09
2019-02-05T06:41:48.671Z,1003.09
2019-02-05T06:42:48.656Z,1003.11
2019-02-05T06:43:48.622Z,1003.03
2019-02-05T06:44:48.613Z,1003.10
2019-02-05T06:45:48.583Z,1003.12
2019-02-05T06:46:48.562Z,1003.15
2019-02-05T06:47:48.550Z,1003.12
2019-02-05T06:48:48.520Z,1003.13
2019-02-05T06:49:48.494Z,1003.14
2019-02-05T06:50:48.481Z,1003.16
2019-02-05T06:51:48.464Z,1003.22
2019-02-05T06:52:48.431Z,1003.22
2019-02-05T06:53:48.420Z,1003.25
2019-02-05T06:54:48.393Z,1003.25
2019-02-05T06:55:48.372Z,1003.27
2019-02-05T06:56:48.352Z,1003.33
2019-02-05T06:57:48.327Z,1003.36
2019-02-05T06:58:48.329Z,1003.39
2019-02-05T06:59:48.289Z,1003.40
2019-02-05T07:00:48.269Z,1003.42
2019-02-05T07:01:48.260Z,1003.45
2019-02-05T07:02:48.224Z,1003.49
2019-02-05T07:03:48.215Z,1003.44
2019-02-05T07:04:48.185Z,1003.40
2019-02-05T07:05:48.164Z,1003.46
2019-02-05T07:06:48.151Z,1003.44
2019-02-05T07:07:48.130Z,1003.47
2019-02-05T07:08:48.106Z,1003.47
2019-02-05T07:09:48.083Z,1003.42
2019-02-05T07:10:48.064Z,1003.41
2019-02-05T07:11:48.041Z,1003.41
2019-02-05T07:12:48.020Z,1003.41
2019-02-05T07:13:48.001Z,1003.44
2019-02-05T07:14:47.980Z,1003.45
2019-02-05T07:15:47.963Z,1003.47
2019-02-05T07:16:47.927Z,1003.52
2019-02-05T07:17:50.103Z,1003.50
2019-02-05T07:18:47.895Z,1003.49
2019-02-05T07:19:47.892Z,1003.53
2019-02-05T07:20:47.854Z,1003.53
2019-02-05T07:21:47.830Z,1003.61
2019-02-05T07:22:47.819Z,1003.60
2019-02-05T07:23:47.788Z,1003.60
2019-02-05T07:24:47.771Z,1003.58
2019-02-05T07:25:47.750Z,1003.53
2019-02-05T07:26:47.730Z,1003.52
2019-02-05T07:27:47.714Z,1003.51
2019-02-05T07:28:58.182Z,1003.50
2019-02-05T07:29:47.668Z,1003.55
2019-02-05T07:30:47.652Z,1003.58
2019-02-05T07:31:47.617Z,1003.57
2019-02-05T07:32:47.603Z,1003.59
2019-02-05T07:33:47.578Z,1003.57
2019-02-05T07:34:47.566Z,1003.61
2019-02-05T07:35:47.547Z,1003.60
2019-02-05T07:36:47.529Z,1003.55
2019-02-05T07:37:47.528Z,1003.54
2019-02-05T07:38:47.480Z,1003.60
2019-02-05T07:39:47.462Z,1003.67
2019-02-05T07:40:47.441Z,1003.65
2019-02-05T07:41:47.431Z,1003.70
2019-02-05T07:42:47.400Z,1003.69
2019-02-05T07:43:47.380Z,1003.70
2019-02-05T07:44:47.361Z,1003.63
2019-02-05T07:45:47.348Z,1003.71
2019-02-05T07:46:47.316Z,1003.69
2019-02-05T07:47:47.297Z,1003.69
2019-02-05T07:48:47.278Z,1003.66
2019-02-05T07:49:47.266Z,1003.73
2019-02-05T07:50:47.231Z,1003.79
2019-02-05T07:51:47.213Z,1003.74
2019-02-05T07:52:47.203Z,1003.78
2019-02-05T07:53:47.176Z,1003.76
2019-02-05T07:54:47.153Z,1003.79
2019-02-05T07:55:47.156Z,1003.76
2019-02-05T07:56:47.127Z,1003.82
2019-02-05T07:57:47.094Z,1003.83
2019-02-05T07:58:47.068Z,1003.85
2019-02-05T07:59:47.275Z,1003.89
2019-02-05T08:00:47.034Z,1003.94
2019-02-05T08:01:47.025Z,1003.95
2019-02-05T08:02:46.992Z,1003.98
2019-02-05T08:03:46.964Z,1003.96
2019-02-05T08:04:46.957Z,1003.98
2019-02-05T08:05:46.922Z,1003.95
2019-02-05T08:06:46.906Z,1003.99
2019-02-05T08:07:46.887Z,1003.97
2019-02-05T08:08:46.863Z,1004.04
2019-02-05T08:09:46.850Z,1004.04
2019-02-05T08:10:46.825Z,1004.02
2019-02-05T08:11:46.802Z,1004.04
2019-02-05T08:12:46.784Z,1004.02
2019-02-05T08:13:46.759Z,1004.01
2019-02-05T08:14:46.744Z,1004.05
2019-02-05T08:15:46.721Z,1004.05
2019-02-05T08:16:47.967Z,1004.08
2019-02-05T08:17:46.679Z,1004.05
2019-02-05T08:18:46.655Z,1004.06
2019-02-05T08:19:46.641Z,1004.11
2019-02-05T08:20:46.618Z,1004.07
2019-02-05T08:21:46.614Z,1004.10
2019-02-05T08:22:46.656Z,1004.11
2019-02-05T08:23:46.557Z,1004.13
2019-02-05T08:24:46.552Z,1004.13
2019-02-05T08:25:46.517Z,1004.18
2019-02-05T08:26:46.510Z,1004.15
2019-02-05T08:27:46.476Z,1004.22
2019-02-05T08:28:46.457Z,1004.22
2019-02-05T08:29:46.436Z,1004.25
2019-02-05T08:30:46.419Z,1004.25
2019-02-05T08:31:46.392Z,1004.25
2019-02-05T08:32:46.374Z,1004.24
2019-02-05T08:33:46.353Z,1004.25
2019-02-05T08:34:46.335Z,1004.23
2019-02-05T08:35:46.321Z,1004.27
2019-02-05T08:36:46.294Z,1004.28
2019-02-05T08:37:46.276Z,1004.25
2019-02-05T08:38:46.257Z,1004.30
2019-02-05T08:39:46.235Z,1004.27
2019-02-05T08:40:46.217Z,1004.31
2019-02-05T08:41:46.191Z,1004.28
2019-02-05T08:42:46.172Z,1004.31
2019-02-05T08:43:46.157Z,1004.29
2019-02-05T08:44:46.176Z,1004.34
2019-02-05T08:45:56.401Z,1004.34
2019-02-05T08:46:46.093Z,1004.28
2019-02-05T08:47:46.072Z,1004.31
2019-02-05T08:48:46.056Z,1004.27
2019-02-05T08:49:46.024Z,1004.26
2019-02-05T08:50:46.014Z,1004.28
2019-02-05T08:51:45.992Z,1004.29
2019-02-05T08:52:45.974Z,1004.35
2019-02-05T08:53:45.957Z,1004.35
2019-02-05T08:54:45.931Z,1004.33
2019-02-05T08:55:45.920Z,1004.35
2019-02-05T08:56:45.894Z,1004.40
2019-02-05T08:57:45.883Z,1004.37
2019-02-05T08:58:45.859Z,1004.38
2019-02-05T08:59:45.835Z,1004.36
2019-02-05T09:00:45.824Z,1004.38
2019-02-05T09:01:45.796Z,1004.39
2019-02-05T09:02:45.787Z,1004.35
2019-02-05T09:03:45.755Z,1004.37
2019-02-05T09:04:45.739Z,1004.30
2019-02-05T09:05:45.714Z,1004.33
2019-02-05T09:06:45.695Z,1004.34
2019-02-05T09:07:45.675Z,1004.33
2019-02-05T09:08:45.658Z,1004.32
2019-02-05T09:09:45.636Z,1004.31
2019-02-05T09:10:45.615Z,1004.33
2019-02-05T09:11:45.614Z,1004.38
2019-02-05T09:12:45.576Z,1004.36
2019-02-05T09:13:45.553Z,1004.37
2019-02-05T09:14:45.538Z,1004.33
2019-02-05T09:15:45.519Z,1004.38
2019-02-05T09:16:45.491Z,1004.35
2019-02-05T09:17:45.482Z,1004.36
2019-02-05T09:18:45.457Z,1004.33
2019-02-05T09:19:45.446Z,1004.35
2019-02-05T09:20:45.424Z,1004.36
2019-02-05T09:21:45.413Z,1004.36
2019-02-05T09:22:45.383Z,1004.36
2019-02-05T09:23:45.362Z,1004.35
2019-02-05T09:24:45.341Z,1004.35
2019-02-05T09:25:45.459Z,1004.35
2019-02-05T09:26:45.306Z,1004.37
2019-02-05T09:27:45.288Z,1004.33
2019-02-05T09:28:45.278Z,1004.39
2019-02-05T09:29:45.249Z,1004.33
2019-02-05T09:30:45.239Z,1004.32
2019-02-05T09:31:45.244Z,1004.33
2019-02-05T09:32:45.191Z,1004.32
2019-02-05T09:33:45.172Z,1004.32
2019-02-05T09:34:45.153Z,1004.32
2019-02-05T09:35:45.135Z,1004.36
2019-02-05T09:36:45.136Z,1004.35
2019-02-05T09:37:45.113Z,1004.34
2019-02-05T09:38:45.079Z,1004.36
2019-02-05T09:39:45.061Z,1004.36
2019-02-05T09:40:45.043Z,1004.35
2019-02-05T09:41:45.020Z,1004.37
2019-02-05T09:42:45.018Z,1004.40
2019-02-05T09:43:44.985Z,1004.40
2019-02-05T09:44:44.968Z,1004.47
2019-02-05T09:45:44.966Z,1004.45
2019-02-05T09:46:44.934Z,1004.54
2019-02-05T09:47:44.917Z,1004.52
2019-02-05T09:48:44.893Z,1004.53
2019-02-05T09:49:44.873Z,1004.53
2019-02-05T09:50:45.268Z,1004.55
2019-02-05T09:51:44.836Z,1004.54
2019-02-05T09:52:44.819Z,1004.56
2019-02-05T09:53:44.798Z,1004.60
2019-02-05T09:54:44.781Z,1004.58
2019-02-05T09:55:44.765Z,1004.61
2019-02-05T09:56:44.740Z,1004.61
2019-02-05T09:57:44.719Z,1004.60
2019-02-05T09:58:44.705Z,1004.62
2019-02-05T09:59:45.698Z,1004.65
2019-02-05T10:00:44.665Z,1004.67
2019-02-05T10:01:44.645Z,1004.66
2019-02-05T10:02:44.628Z,1004.68
2019-02-05T10:03:44.626Z,1004.70
2019-02-05T10:04:44.593Z,1004.65
2019-02-05T10:05:44.571Z,1004.69
2019-02-05T10:06:44.569Z,1004.70
2019-02-05T10:07:44.534Z,1004.71
2019-02-05T10:08:44.515Z,1004.79
2019-02-05T10:09:44.497Z,1004.79
2019-02-05T10:10:44.482Z,1004.84
2019-02-05T10:11:44.458Z,1004.81
2019-02-05T10:12:46.827Z,1004.82
2019-02-05T10:13:44.419Z,1004.81
2019-02-05T10:14:44.409Z,1004.87
2019-02-05T10:15:44.383Z,1004.85
2019-02-05T10:16:44.366Z,1004.85
2019-02-05T10:17:44.346Z,1004.86
2019-02-05T10:18:45.959Z,1004.85
2019-02-05T10:19:44.317Z,1004.89
2019-02-05T10:20:44.296Z,1004.88
2019-02-05T10:21:44.272Z,1004.89
2019-02-05T10:22:44.258Z,1004.89
2019-02-05T10:23:44.232Z,1004.92
2019-02-05T10:24:44.216Z,1004.89
2019-02-05T10:25:44.196Z,1004.94
2019-02-05T10:26:44.177Z,1004.97
2019-02-05T10:27:44.160Z,1004.95
2019-02-05T10:28:44.142Z,1004.98
2019-02-05T10:29:44.122Z,1005.00
2019-02-05T10:30:44.114Z,1005.05
2019-02-05T10:31:44.085Z,1005.07
2019-02-05T10:32:44.069Z,1005.03
2019-02-05T10:33:54.653Z,1005.04
2019-02-05T10:34:44.024Z,1005.03
2019-02-05T10:35:44.019Z,1005.03
2019-02-05T10:36:43.993Z,1005.08
2019-02-05T10:37:43.974Z,1005.07
2019-02-05T10:38:43.957Z,1005.08
2019-02-05T10:39:43.929Z,1005.10
2019-02-05T10:40:43.917Z,1005.11
2019-02-05T10:41:43.911Z,1005.08
2019-02-05T10:42:44.262Z,1005.03
2019-02-05T10:43:43.866Z,1005.07
2019-02-05T10:44:43.845Z,1005.09
2019-02-05T10:45:43.833Z,1005.07
2019-02-05T10:46:43.813Z,1005.09
2019-02-05T10:47:43.794Z,1005.06
2019-02-05T10:48:43.774Z,1005.09
2019-02-05T10:49:43.758Z,1005.10
2019-02-05T10:50:43.744Z,1005.13
2019-02-05T10:51:43.723Z,1005.14
2019-02-05T10:52:43.704Z,1005.10
2019-02-05T10:53:43.684Z,1005.07
2019-02-05T10:54:43.662Z,1005.10
2019-02-05T10:55:43.647Z,1005.02
2019-02-05T10:56:43.626Z,1005.04
2019-02-05T10:57:43.615Z,1005.00
2019-02-05T10:58:43.592Z,1005.01
2019-02-05T10:59:43.572Z,1004.99
2019-02-05T11:00:43.555Z,1005.02
2019-02-05T11:01:43.537Z,1005.00
2019-02-05T11:02:43.519Z,1004.96
2019-02-05T11:03:43.507Z,1004.98
2019-02-05T11:04:43.485Z,1005.02
2019-02-05T11:05:43.465Z,1005.04
2019-02-05T11:06:43.444Z,1005.02
2019-02-05T11:07:43.420Z,1005.08
2019-02-05T11:08:43.416Z,1005.02
2019-02-05T11:09:43.388Z,1005.07
2019-02-05T11:10:43.373Z,1005.01
2019-02-05T11:11:43.355Z,1005.06
2019-02-05T11:12:43.336Z,1004.99
2019-02-05T11:13:43.318Z,1005.01
2019-02-05T11:14:43.319Z,1005.01
2019-02-05T11:15:43.281Z,1004.98
2019-02-05T11:16:43.264Z,1004.95
2019-02-05T11:17:43.244Z,1004.95
2019-02-05T11:18:43.222Z,1004.95
2019-02-05T11:19:43.210Z,1004.94
2019-02-05T11:20:43.302Z,1004.92
2019-02-05T11:21:43.171Z,1004.91
2019-02-05T11:22:43.170Z,1004.89
2019-02-05T11:23:43.136Z,1004.93
2019-02-05T11:24:43.115Z,1004.93
2019-02-05T11:25:43.112Z,1004.97
2019-02-05T11:26:43.080Z,1004.96
2019-02-05T11:27:45.835Z,1004.99
2019-02-05T11:28:43.043Z,1004.97
2019-02-05T11:29:43.024Z,1004.95
2019-02-05T11:30:43.008Z,1005.00
2019-02-05T11:31:42.997Z,1004.87
2019-02-05T11:32:42.970Z,1004.84
2019-02-05T11:33:42.953Z,1004.84
2019-02-05T11:34:42.937Z,1004.87
2019-02-05T11:35:42.913Z,1004.82
2019-02-05T11:36:42.903Z,1004.81
2019-02-05T11:37:42.890Z,1004.79
2019-02-05T11:38:42.872Z,1004.80
2019-02-05T11:39:42.847Z,1004.82
2019-02-05T11:40:42.828Z,1004.82
2019-02-05T11:41:42.824Z,1004.77
2019-02-05T11:42:42.795Z,1004.77
2019-02-05T11:43:42.775Z,1004.78
2019-02-05T11:44:42.759Z,1004.75
2019-02-05T11:45:42.740Z,1004.74
2019-02-05T11:46:42.728Z,1004.73
2019-02-05T11:47:42.718Z,1004.72
2019-02-05T11:48:42.698Z,1004.74
2019-02-05T11:49:42.673Z,1004.68
2019-02-05T11:50:42.659Z,1004.72
2019-02-05T11:51:42.632Z,1004.72
2019-02-05T11:52:42.621Z,1004.69
2019-02-05T11:53:42.613Z,1004.71
2019-02-05T11:54:42.591Z,1004.74
2019-02-05T11:55:42.573Z,1004.77
2019-02-05T11:56:42.557Z,1004.75
2019-02-05T11:57:42.541Z,1004.71
2019-02-05T11:58:42.539Z,1004.72
2019-02-05T11:59:42.513Z,1004.67
2019-02-05T12:00:42.493Z,1004.70
2019-02-05T12:01:42.480Z,1004.75
2019-02-05T12:02:42.462Z,1004.78
2019-02-05T12:03:42.445Z,1004.70
2019-02-05T12:04:42.426Z,1004.69
2019-02-05T12:05:42.413Z,1004.71